This is the latest recevied weather packets stored in our database for station/object KJ5IIV. If no packets are shown the sender has not sent any weather packets the latest 10 day(s).
| Time | Temp. | Humidity | Pressure | Rain* | Wind** | Luminosity | Snow |
|---|---|---|---|---|---|---|---|
| 1777476262 | 17.22° C | 92% | 1014.5 hPa | 0 mm | - | 113 W/m² | - |
| 1777475957 | 17.22° C | 91% | 1014.8 hPa | 0 mm | - | 47 W/m² | - |
| 1777475654 | 17.22° C | 92% | 1014.6 hPa | 0 mm | - | 99 W/m² | - |
| 1777475350 | 17.22° C | 92% | 1014.7 hPa | 0 mm | - | 83 W/m² | - |
| 1777475045 | 17.22° C | 92% | 1014.4 hPa | 0 mm | - | 97 W/m² | - |
| 1777474741 | 17.22° C | 92% | 1014.8 hPa | 0 mm | - | 66 W/m² | - |
| 1777474438 | 17.22° C | 92% | 1014.6 hPa | 0 mm | - | 92 W/m² | - |
| 1777474134 | 16.67° C | 92% | 1014.6 hPa | 0 mm | - | 62 W/m² | - |
| 1777473833 | 16.67° C | 92% | 1014.6 hPa | 0 mm | - | 44 W/m² | - |
| 1777473529 | 17.22° C | 92% | 1014.6 hPa | 0 mm | - | 45 W/m² | - |
| 1777473224 | 17.22° C | 92% | 1014.3 hPa | 0 mm | - | 67 W/m² | - |
| 1777472922 | 17.22° C | 92% | 1014.4 hPa | 0 mm | - | 56 W/m² | - |
| 1777472618 | 17.22° C | 92% | 1014.2 hPa | 0 mm | - | 84 W/m² | - |
| 1777472315 | 17.22° C | 93% | 1014.3 hPa | 0 mm | - | 88 W/m² | - |
| 1777472012 | 17.22° C | 93% | 1014.5 hPa | 0 mm | - | 77 W/m² | - |
| 1777471707 | 17.22° C | 93% | 1014.6 hPa | 0 mm | - | 58 W/m² | - |
| 1777471404 | 17.22° C | 93% | 1014.8 hPa | 0 mm | - | 58 W/m² | - |
| 1777471101 | 17.22° C | 93% | 1014.6 hPa | 0 mm | - | 51 W/m² | - |
| 1777470798 | 17.22° C | 93% | 1014.4 hPa | 0 mm | - | 59 W/m² | - |
| 1777470495 | 17.22° C | 93% | 1014.3 hPa | 0 mm | - | 70 W/m² | - |
| 1777470190 | 17.22° C | 93% | 1014.3 hPa | 0 mm | - | 47 W/m² | - |
| 1777469887 | 17.22° C | 92% | 1014.3 hPa | 0 mm | - | 33 W/m² | - |
| 1777469583 | 17.22° C | 92% | 1014.5 hPa | 0 mm | - | 24 W/m² | - |
| 1777469277 | 17.78° C | 91% | 1014.5 hPa | 0 mm | - | 35 W/m² | - |
| 1777468973 | 17.78° C | 91% | 1014.1 hPa | 0 mm | - | 34 W/m² | - |
* Rain latest hour (hover to see other rain measurements)
** Current wind speed in m/s (hover to see current wind gust speed)